Time;durP1;ratioP1;P1;durP2;ratioP2;P2;SDS_P1;SDS_P2;PMS_P1;PMS_P2;Temp;Humidity;BMP_temperature;BMP_pressure;BME280_temperature;BME280_humidity;BME280_pressure;Samples;Min_cycle;Max_cycle;Signal;HPM_P1;HPM_P2
2022/03/04 00:01:59;;;;;;;66.57;21.92;;;0.20;99.90;;;;;;5061527;28;20699;-56
2022/03/04 00:05:24;;;;;;;77.80;29.48;;;0.10;99.90;;;;;;5073924;28;20036;-54
2022/03/04 00:08:50;;;;;;;71.80;27.80;;;0.10;99.90;;;;;;5078516;28;20109;-53
2022/03/04 00:12:15;;;;;;;73.03;24.13;;;0.10;99.90;;;;;;5068779;28;20068;-54
2022/03/04 00:15:41;;;;;;;53.72;18.73;;;0.20;99.90;;;;;;5066675;28;20446;-54
2022/03/04 00:19:06;;;;;;;81.15;28.33;;;0.20;99.90;;;;;;5064650;28;20039;-54
2022/03/04 00:22:31;;;;;;;77.40;24.58;;;0.30;99.90;;;;;;5073719;28;20035;-57
2022/03/04 00:25:57;;;;;;;52.72;20.83;;;0.30;99.90;;;;;;5078018;28;20044;-54
2022/03/04 00:29:22;;;;;;;54.67;19.67;;;0.40;99.90;;;;;;5042990;28;20091;-55
2022/03/04 00:32:47;;;;;;;49.58;17.10;;;0.40;99.90;;;;;;5076223;28;20681;-55
2022/03/04 00:36:13;;;;;;;55.58;19.55;;;0.50;99.90;;;;;;5073190;28;20118;-55
2022/03/04 00:39:38;;;;;;;48.08;18.13;;;0.50;99.90;;;;;;5076567;28;20565;-55
2022/03/04 00:43:03;;;;;;;48.55;18.90;;;0.60;99.90;;;;;;5078126;28;20042;-56
2022/03/04 00:46:29;;;;;;;50.17;23.98;;;0.60;99.90;;;;;;5087342;28;20794;-52
2022/03/04 00:49:54;;;;;;;49.40;20.83;;;0.60;99.90;;;;;;5089109;28;20047;-53
2022/03/04 00:53:19;;;;;;;50.97;21.48;;;0.70;99.90;;;;;;5084977;28;20052;-56
2022/03/04 00:56:48;;;;;;;49.03;18.52;;;0.70;99.90;;;;;;5092933;28;20116;-54
2022/03/04 00:59:53;;;;;;;;;;;0.70;99.90;;;;;;5052949;28;20048;-56
2022/03/04 01:03:19;;;;;;;41.72;18.23;;;0.70;99.90;;;;;;5061809;28;19991;-55
2022/03/04 01:06:44;;;;;;;38.83;17.35;;;0.70;99.90;;;;;;5070434;28;20102;-53
2022/03/04 01:10:09;;;;;;;31.52;15.68;;;0.70;99.90;;;;;;5087225;28;20039;-55
2022/03/04 01:13:35;;;;;;;34.50;16.35;;;0.70;99.90;;;;;;5080579;28;20085;-54
2022/03/04 01:17:00;;;;;;;28.75;13.68;;;0.80;99.90;;;;;;5087264;28;20516;-54
2022/03/04 01:20:26;;;;;;;36.47;17.67;;;0.80;99.90;;;;;;5075534;28;20071;-55
2022/03/04 01:23:51;;;;;;;26.10;12.80;;;0.80;99.90;;;;;;5076813;28;20047;-53
2022/03/04 01:27:16;;;;;;;26.77;12.05;;;0.80;99.90;;;;;;5075628;28;20430;-54
2022/03/04 01:30:42;;;;;;;26.70;13.65;;;0.80;99.90;;;;;;5076281;28;20094;-55
2022/03/04 01:34:07;;;;;;;28.02;14.80;;;0.90;99.90;;;;;;5065818;28;20623;-56
2022/03/04 01:37:47;;;;;;;32.95;17.30;;;0.90;99.90;;;;;;5079880;28;20055;-54
2022/03/04 01:41:13;;;;;;;29.40;15.50;;;0.90;99.90;;;;;;5054122;28;20043;-52
2022/03/04 01:44:39;;;;;;;35.67;17.55;;;1.00;99.90;;;;;;5073075;28;20691;-55
2022/03/04 01:48:03;;;;;;;24.40;11.80;;;1.00;99.90;;;;;;5085507;28;20036;-52
2022/03/04 01:51:29;;;;;;;32.40;17.08;;;1.00;99.90;;;;;;5092158;28;20035;-52
2022/03/04 01:54:54;;;;;;;27.40;12.38;;;1.00;99.90;;;;;;5071455;28;20032;-53
2022/03/04 01:58:19;;;;;;;26.17;12.25;;;1.00;99.90;;;;;;5078887;28;20141;-49
2022/03/04 02:01:45;;;;;;;24.05;13.05;;;1.00;99.90;;;;;;5080801;28;20557;-52
2022/03/04 02:05:10;;;;;;;23.05;13.13;;;1.10;99.90;;;;;;5088461;28;20032;-54
2022/03/04 02:08:35;;;;;;;21.85;10.93;;;1.10;99.90;;;;;;5078564;28;20086;-51
2022/03/04 02:12:01;;;;;;;22.13;11.90;;;1.10;99.90;;;;;;5088217;28;20034;-54
2022/03/04 02:15:26;;;;;;;25.55;13.82;;;1.10;99.90;;;;;;5080581;28;20091;-48
2022/03/04 02:18:52;;;;;;;29.25;14.68;;;1.10;99.90;;;;;;5068387;28;20126;-53
2022/03/04 02:22:17;;;;;;;32.25;18.25;;;1.10;99.90;;;;;;5087882;28;20028;-52
2022/03/04 02:25:42;;;;;;;35.03;18.40;;;1.20;99.90;;;;;;5085000;28;20605;-50
2022/03/04 02:29:08;;;;;;;36.17;16.85;;;1.20;99.90;;;;;;5070133;28;20049;-50
2022/03/04 02:32:33;;;;;;;41.15;20.63;;;1.20;99.90;;;;;;5078739;28;20116;-49
2022/03/04 02:35:58;;;;;;;40.63;20.23;;;1.20;99.90;;;;;;5089385;28;20028;-50
2022/03/04 02:39:24;;;;;;;35.03;16.85;;;1.30;99.90;;;;;;5067241;28;20514;-51
2022/03/04 02:42:49;;;;;;;41.53;16.80;;;1.30;99.90;;;;;;5072158;28;20025;-54
2022/03/04 02:46:15;;;;;;;42.60;20.15;;;1.30;99.90;;;;;;5050932;28;20035;-51
2022/03/04 02:49:40;;;;;;;42.92;17.13;;;1.30;99.90;;;;;;5085278;28;20039;-51
2022/03/04 02:53:05;;;;;;;35.95;14.65;;;1.30;99.90;;;;;;5077683;28;20028;-51
2022/03/04 02:56:31;;;;;;;34.47;17.00;;;1.30;99.90;;;;;;5079606;28;20404;-51
2022/03/04 02:59:56;;;;;;;42.58;16.10;;;1.30;99.90;;;;;;5086984;28;20032;-49
2022/03/04 03:03:21;;;;;;;46.38;18.35;;;1.30;99.90;;;;;;5075325;28;20477;-53
2022/03/04 03:06:47;;;;;;;37.88;15.85;;;1.30;99.90;;;;;;5079174;28;20073;-52
2022/03/04 03:10:12;;;;;;;29.40;14.07;;;1.30;99.90;;;;;;5086598;28;20079;-49
2022/03/04 03:13:37;;;;;;;24.08;12.60;;;1.30;99.90;;;;;;5072816;28;20435;-49
2022/03/04 03:17:03;;;;;;;21.67;10.68;;;1.30;99.90;;;;;;5079435;28;20032;-51
2022/03/04 03:20:28;;;;;;;19.15;10.18;;;1.20;99.90;;;;;;5084464;28;20058;-53
2022/03/04 03:23:54;;;;;;;16.50;8.13;;;1.30;99.90;;;;;;5066061;28;20107;-52
2022/03/04 03:27:19;;;;;;;15.50;7.65;;;1.30;99.90;;;;;;5052499;28;20089;-53
2022/03/04 03:30:44;;;;;;;14.23;7.78;;;1.30;99.90;;;;;;5049960;28;20075;-54
2022/03/04 03:34:10;;;;;;;20.55;8.52;;;1.30;99.90;;;;;;5064699;28;20132;-53
2022/03/04 03:37:35;;;;;;;14.45;6.57;;;1.30;99.90;;;;;;5080775;28;20047;-52
2022/03/04 03:41:00;;;;;;;14.82;6.60;;;1.30;99.90;;;;;;5049529;28;20437;-53
2022/03/04 03:44:26;;;;;;;12.27;5.97;;;1.30;99.90;;;;;;5066558;28;20036;-55
2022/03/04 03:47:53;;;;;;;14.80;7.18;;;1.30;99.90;;;;;;5078175;28;20052;-53
2022/03/04 03:51:17;;;;;;;10.40;6.15;;;1.30;99.90;;;;;;5077825;28;20089;-54
2022/03/04 03:54:42;;;;;;;14.60;6.13;;;1.30;99.90;;;;;;5078390;28;20398;-54
2022/03/04 03:58:07;;;;;;;11.98;5.35;;;1.00;99.90;;;;;;5068504;28;20044;-54
2022/03/04 04:01:33;;;;;;;12.07;5.47;;;0.70;99.90;;;;;;5078594;28;20036;-53
2022/03/04 04:04:58;;;;;;;9.27;5.07;;;0.30;99.90;;;;;;5086033;28;20039;-51
2022/03/04 04:08:23;;;;;;;10.43;5.75;;;-0.10;99.90;;;;;;5073719;28;20062;-54
2022/03/04 04:11:49;;;;;;;8.10;4.05;;;-0.40;99.90;;;;;;5078956;28;20035;-55
2022/03/04 04:15:14;;;;;;;10.68;5.10;;;-0.70;99.90;;;;;;5078171;28;20040;-55
2022/03/04 04:18:39;;;;;;;13.45;5.60;;;-0.90;99.90;;;;;;5063695;28;20047;-55
2022/03/04 04:22:05;;;;;;;11.15;5.40;;;-1.10;99.90;;;;;;5085069;28;20389;-53
2022/03/04 04:25:30;;;;;;;11.88;5.57;;;-1.30;99.90;;;;;;5082382;28;20048;-53
2022/03/04 04:28:55;;;;;;;13.65;5.80;;;-1.50;99.90;;;;;;5064882;28;20052;-54
2022/03/04 04:32:21;;;;;;;12.00;5.18;;;-1.60;99.90;;;;;;5074401;28;20032;-54
2022/03/04 04:35:46;;;;;;;13.40;4.90;;;-1.80;99.90;;;;;;5048859;28;20040;-54
2022/03/04 04:39:12;;;;;;;12.57;6.15;;;-2.00;99.90;;;;;;5064290;28;20102;-53
2022/03/04 04:42:37;;;;;;;15.93;5.43;;;-2.00;99.90;;;;;;5075937;28;20040;-51
2022/03/04 04:46:02;;;;;;;13.05;5.35;;;-2.10;99.90;;;;;;5048850;28;20033;-53
2022/03/04 04:49:29;;;;;;;10.57;5.32;;;-2.20;99.90;;;;;;5085386;28;20544;-54
2022/03/04 04:52:53;;;;;;;9.43;4.75;;;-2.30;99.90;;;;;;5069425;28;20036;-53
2022/03/04 04:56:18;;;;;;;12.50;4.35;;;-2.40;99.90;;;;;;5077786;28;20032;-55
2022/03/04 04:59:44;;;;;;;12.25;5.43;;;-2.40;99.90;;;;;;5077744;28;20098;-54
2022/03/04 05:03:09;;;;;;;12.07;4.85;;;-2.50;99.90;;;;;;5063850;28;20037;-54
2022/03/04 05:06:34;;;;;;;19.08;6.40;;;-2.50;99.90;;;;;;5073968;28;20508;-53
2022/03/04 05:09:20;;;;;;;13.32;5.55;;;-2.70;99.90;;;;;;5085205;28;20090;-60
2022/03/04 05:11:45;;;;;;;15.73;6.20;;;-2.80;99.90;;;;;;5068929;28;20396;-59
2022/03/04 05:14:11;;;;;;;8.70;3.85;;;-2.80;99.90;;;;;;5088360;28;20681;-59
2022/03/04 05:16:37;;;;;;;14.20;6.18;;;-2.90;99.90;;;;;;5070109;28;20032;-60
2022/03/04 05:19:02;;;;;;;14.15;5.82;;;-2.90;99.90;;;;;;5088384;28;20035;-59
2022/03/04 05:21:29;;;;;;;11.43;5.18;;;-2.90;99.90;;;;;;5071004;28;20045;-58
2022/03/04 05:24:34;;;;;;;12.90;5.22;;;-2.80;99.90;;;;;;5087944;28;20044;-59
2022/03/04 05:27:59;;;;;;;10.85;4.53;;;-2.70;99.90;;;;;;5061183;28;20094;-59
2022/03/04 05:31:25;;;;;;;7.32;3.75;;;-2.40;99.90;;;;;;5066224;28;20041;-58
2022/03/04 05:34:50;;;;;;;14.70;5.00;;;-2.30;99.90;;;;;;5081262;28;20645;-59
2022/03/04 05:38:15;;;;;;;15.00;5.47;;;-2.10;99.90;;;;;;5089031;28;20044;-59
2022/03/04 05:41:41;;;;;;;12.98;3.80;;;-1.90;99.90;;;;;;5075142;28;20123;-58
2022/03/04 05:45:06;;;;;;;25.70;6.60;;;-1.70;99.90;;;;;;5085968;28;20411;-59
2022/03/04 05:48:31;;;;;;;19.15;6.65;;;-1.50;99.90;;;;;;5074143;28;20101;-59
2022/03/04 05:51:57;;;;;;;18.95;6.00;;;-1.20;99.90;;;;;;5074852;28;20040;-60
2022/03/04 05:55:22;;;;;;;15.82;4.80;;;-1.00;99.90;;;;;;5084663;28;20028;-57
2022/03/04 05:58:48;;;;;;;19.60;5.95;;;-0.90;99.90;;;;;;5090113;28;20036;-59
2022/03/04 06:02:13;;;;;;;11.43;5.07;;;-0.70;99.90;;;;;;5071074;28;20033;-58
2022/03/04 06:05:39;;;;;;;24.33;8.10;;;-0.50;99.90;;;;;;5063215;28;20047;-57
2022/03/04 06:09:04;;;;;;;17.35;5.50;;;-0.40;99.90;;;;;;5063167;28;20140;-55
2022/03/04 06:12:29;;;;;;;14.88;4.80;;;-0.30;99.90;;;;;;5050752;28;20033;-55
2022/03/04 06:15:34;;;;;;;21.75;6.18;;;-0.10;99.90;;;;;;5051298;28;20029;-57
2022/03/04 06:19:00;;;;;;;20.70;7.75;;;0.00;99.90;;;;;;5070392;28;20028;-57
2022/03/04 06:22:25;;;;;;;23.45;6.55;;;0.10;99.90;;;;;;5087568;28;20051;-57
2022/03/04 06:25:50;;;;;;;13.25;5.60;;;0.20;99.90;;;;;;5079780;28;20036;-57
2022/03/04 06:29:16;;;;;;;9.35;4.63;;;0.30;99.90;;;;;;5064246;28;20500;-57
2022/03/04 06:32:41;;;;;;;10.98;4.95;;;0.40;99.90;;;;;;5079663;28;20089;-57
2022/03/04 06:36:07;;;;;;;7.43;3.88;;;0.50;99.90;;;;;;5079785;28;20042;-58
2022/03/04 06:39:32;;;;;;;9.07;3.83;;;0.50;99.90;;;;;;5065141;28;20039;-54
2022/03/04 06:42:57;;;;;;;10.35;3.40;;;0.60;99.90;;;;;;5079594;28;20072;-56
2022/03/04 06:46:23;;;;;;;8.07;3.13;;;0.80;99.90;;;;;;5090498;28;20388;-58
2022/03/04 06:49:48;;;;;;;12.27;3.67;;;0.80;99.90;;;;;;5077543;28;20048;-57
2022/03/04 06:53:13;;;;;;;6.40;3.17;;;0.90;99.90;;;;;;5077654;28;20047;-57
2022/03/04 06:56:39;;;;;;;9.85;3.45;;;0.90;99.90;;;;;;5090469;28;20067;-57
2022/03/04 07:00:07;;;;;;;6.10;2.95;;;1.00;99.90;;;;;;5082062;28;20044;-58
2022/03/04 07:03:29;;;;;;;7.30;3.05;;;1.00;99.90;;;;;;5082478;28;20189;-57
2022/03/04 07:06:55;;;;;;;7.38;3.30;;;1.10;99.90;;;;;;5050213;28;20041;-58
2022/03/04 07:10:20;;;;;;;9.20;3.47;;;1.10;99.90;;;;;;5086106;28;20546;-57
2022/03/04 07:13:45;;;;;;;7.72;3.45;;;1.20;99.90;;;;;;5084650;28;20060;-58
2022/03/04 07:17:11;;;;;;;8.65;4.13;;;1.20;99.90;;;;;;5050028;28;20029;-57
2022/03/04 07:20:36;;;;;;;10.70;3.78;;;1.20;99.90;;;;;;5078709;28;20426;-58
2022/03/04 07:24:01;;;;;;;8.80;3.20;;;1.30;99.90;;;;;;5081954;28;20028;-57
2022/03/04 07:27:27;;;;;;;5.72;3.03;;;1.40;99.90;;;;;;5071543;28;20032;-58
2022/03/04 07:30:52;;;;;;;7.72;2.90;;;1.50;99.90;;;;;;5049621;28;20048;-55
2022/03/04 07:34:18;;;;;;;7.55;3.47;;;1.60;99.90;;;;;;5075569;28;20036;-58
2022/03/04 07:37:43;;;;;;;8.75;3.60;;;1.80;99.90;;;;;;5084331;28;20467;-57
2022/03/04 07:41:08;;;;;;;7.25;3.33;;;1.90;99.90;;;;;;5078644;28;20392;-57
2022/03/04 07:44:34;;;;;;;6.50;2.67;;;2.00;99.90;;;;;;5064025;28;20109;-58
2022/03/04 07:47:59;;;;;;;9.30;2.88;;;2.10;99.90;;;;;;5085954;28;20063;-59
2022/03/04 07:51:24;;;;;;;5.28;2.50;;;2.20;99.90;;;;;;5089347;28;20035;-57
2022/03/04 07:54:50;;;;;;;5.57;2.80;;;2.20;99.90;;;;;;5076896;28;20035;-59
2022/03/04 07:58:15;;;;;;;4.32;2.20;;;2.30;99.90;;;;;;5083567;28;20392;-58
2022/03/04 08:01:40;;;;;;;7.30;2.80;;;2.30;99.90;;;;;;5089285;28;20040;-60
2022/03/04 08:05:08;;;;;;;7.70;2.80;;;2.40;99.90;;;;;;5081080;28;20028;-58
2022/03/04 08:08:31;;;;;;;9.50;3.13;;;2.50;99.90;;;;;;5054333;28;20043;-58
2022/03/04 08:11:57;;;;;;;8.50;2.75;;;2.60;99.90;;;;;;5048841;28;20079;-58
2022/03/04 08:15:22;;;;;;;5.70;2.35;;;2.60;99.90;;;;;;5085303;28;20488;-59
2022/03/04 08:18:47;;;;;;;7.25;2.50;;;2.70;99.90;;;;;;5078743;28;20028;-59
2022/03/04 08:22:13;;;;;;;6.28;2.20;;;2.70;99.90;;;;;;5048908;28;20444;-58
2022/03/04 08:25:38;;;;;;;5.25;2.58;;;2.80;99.90;;;;;;5077672;28;20059;-59
2022/03/04 08:29:03;;;;;;;5.18;2.67;;;2.90;99.90;;;;;;5078029;28;20044;-58
2022/03/04 08:32:29;;;;;;;4.22;2.03;;;2.90;99.90;;;;;;5077820;28;20063;-59
2022/03/04 08:35:54;;;;;;;7.60;2.72;;;2.90;99.90;;;;;;5048705;28;20047;-59
2022/03/04 08:39:19;;;;;;;7.55;2.70;;;2.80;99.90;;;;;;5065021;28;20408;-60
2022/03/04 08:42:45;;;;;;;5.65;2.40;;;2.80;99.90;;;;;;5077473;28;20108;-59
2022/03/04 08:46:13;;;;;;;4.93;1.90;;;2.80;99.90;;;;;;5082951;28;20712;-59
2022/03/04 08:49:35;;;;;;;4.32;1.85;;;2.80;99.90;;;;;;5068967;28;20063;-60
2022/03/04 08:53:01;;;;;;;3.55;1.77;;;2.80;99.90;;;;;;5077501;28;20032;-60
2022/03/04 08:56:26;;;;;;;4.07;1.95;;;2.80;99.90;;;;;;5088319;28;20043;-59
2022/03/04 08:59:51;;;;;;;4.43;2.15;;;2.80;99.90;;;;;;5076517;28;20031;-60
2022/03/04 09:03:17;;;;;;;4.65;2.10;;;2.90;99.90;;;;;;5080848;28;20403;-59
2022/03/04 09:06:42;;;;;;;6.38;2.15;;;3.00;99.90;;;;;;5088475;28;20040;-60
2022/03/04 09:10:08;;;;;;;4.82;1.83;;;3.20;99.90;;;;;;5067696;28;20501;-60
2022/03/04 09:13:33;;;;;;;8.05;1.80;;;3.50;99.90;;;;;;5079220;28;20032;-60
2022/03/04 09:16:58;;;;;;;3.78;1.60;;;3.70;99.90;;;;;;5052225;28;20111;-60
2022/03/04 09:20:24;;;;;;;3.72;1.58;;;3.90;99.90;;;;;;5069886;28;20055;-60
2022/03/04 09:23:49;;;;;;;8.00;2.10;;;4.00;99.90;;;;;;5072545;28;20028;-60
2022/03/04 09:27:14;;;;;;;7.05;2.67;;;4.00;99.90;;;;;;5053324;28;20063;-59
2022/03/04 09:30:40;;;;;;;2.97;1.58;;;4.00;99.90;;;;;;5092186;28;20067;-59
2022/03/04 09:34:05;;;;;;;5.32;1.30;;;4.20;99.90;;;;;;5070157;28;20442;-59
2022/03/04 09:37:31;;;;;;;4.25;1.33;;;4.50;99.90;;;;;;5080790;28;20068;-59
2022/03/04 09:40:56;;;;;;;5.60;2.17;;;4.70;99.90;;;;;;5086209;28;20407;-60
2022/03/04 09:44:21;;;;;;;5.07;1.73;;;4.80;99.90;;;;;;5073234;28;20037;-58
2022/03/04 09:47:47;;;;;;;4.22;1.77;;;4.60;99.90;;;;;;5080864;28;20043;-60
2022/03/04 09:51:12;;;;;;;4.60;1.95;;;4.50;99.90;;;;;;5086110;28;20079;-60
2022/03/04 09:54:37;;;;;;;5.05;1.95;;;4.60;99.90;;;;;;5070941;28;20040;-60
2022/03/04 09:58:03;;;;;;;5.82;1.63;;;4.70;99.90;;;;;;5083627;28;20544;-59
2022/03/04 10:01:31;;;;;;;6.00;2.00;;;4.70;99.90;;;;;;5091552;28;20040;-60
2022/03/04 10:04:56;;;;;;;8.13;2.30;;;4.80;99.90;;;;;;5067676;28;20037;-60
2022/03/04 10:08:22;;;;;;;8.60;2.08;;;4.70;99.90;;;;;;5082123;28;20595;-60
2022/03/04 10:11:50;;;;;;;5.55;1.90;;;4.90;99.90;;;;;;5091157;28;20032;-58
2022/03/04 10:15:24;;;;;;;4.63;2.25;;;4.80;99.90;;;;;;5086354;28;20032;-60
2022/03/04 10:18:50;;;;;;;5.32;1.75;;;4.70;99.90;;;;;;5086622;28;20400;-59
2022/03/04 10:22:31;;;;;;;5.80;2.05;;;4.70;99.90;;;;;;5050931;28;20116;-59
2022/03/04 10:25:56;;;;;;;3.10;1.58;;;4.60;92.80;;;;;;5002514;28;20553;-60
2022/03/04 10:29:24;;;;;;;3.35;1.40;;;4.70;96.10;;;;;;5077936;28;20131;-58
2022/03/04 10:32:33;;;;;;;4.60;1.20;;;4.80;92.20;;;;;;5082532;28;20445;-59
2022/03/04 10:35:58;;;;;;;4.47;1.92;;;4.80;86.70;;;;;;5050861;28;20045;-60
2022/03/04 10:39:27;;;;;;;4.93;1.83;;;4.90;80.70;;;;;;5066651;28;20032;-59
2022/03/04 10:42:41;;;;;;;4.75;2.25;;;4.90;75.30;;;;;;5087157;28;20028;-59
2022/03/04 10:46:22;;;;;;;1.95;1.55;;;5.00;73.40;;;;;;5079588;28;20106;-59
2022/03/04 10:49:47;;;;;;;3.35;1.52;;;5.20;74.60;;;;;;5070448;28;20134;-59
2022/03/04 10:53:12;;;;;;;3.42;1.27;;;5.10;68.50;;;;;;5076256;28;20411;-60
2022/03/04 10:56:38;;;;;;;4.10;1.25;;;5.10;76.10;;;;;;5090563;28;20040;-60
2022/03/04 11:00:15;;;;;;;3.42;1.02;;;5.00;67.50;;;;;;5081987;28;20491;-59
2022/03/04 11:03:40;;;;;;;5.90;1.20;;;5.00;68.90;;;;;;5077509;28;20036;-60
2022/03/04 11:07:06;;;;;;;2.50;1.25;;;5.00;67.30;;;;;;5050154;28;20086;-60
2022/03/04 11:09:51;;;;;;;1.48;1.00;;;5.00;70.30;;;;;;5079443;28;20072;-60
2022/03/04 11:12:18;;;;;;;3.78;1.33;;;4.90;65.20;;;;;;5090255;28;20642;-60
2022/03/04 11:14:43;;;;;;;2.33;0.90;;;4.90;59.50;;;;;;5088524;28;20036;-60
2022/03/04 11:17:09;;;;;;;4.70;1.30;;;5.10;71.30;;;;;;5090188;28;20127;-60
2022/03/04 11:19:34;;;;;;;3.00;1.50;;;5.10;73.50;;;;;;5069944;28;20511;-60
2022/03/04 11:22:00;;;;;;;1.30;1.00;;;5.20;68.50;;;;;;5089519;28;20462;-61
2022/03/04 11:24:30;;;;;;;3.80;1.27;;;5.30;71.90;;;;;;5070781;28;20500;-60
2022/03/04 11:27:04;;;;;;;2.28;1.00;;;5.50;67.10;;;;;;5083347;28;20035;-60
2022/03/04 11:29:34;;;;;;;4.85;1.60;;;5.50;62.80;;;;;;5087884;28;20047;-60
2022/03/04 11:32:03;;;;;;;4.50;1.50;;;5.40;58.20;;;;;;5090045;28;20038;-60
2022/03/04 11:34:40;;;;;;;2.08;1.30;;;5.10;55.90;;;;;;5070679;28;20499;-60
2022/03/04 11:37:15;;;;;;;4.18;1.38;;;5.10;61.70;;;;;;5049837;28;20086;-60
2022/03/04 11:40:01;;;;;;;2.20;1.10;;;5.30;60.40;;;;;;5066971;28;20119;-60
2022/03/04 11:42:35;;;;;;;3.53;1.77;;;5.80;61.90;;;;;;5087528;28;20035;-60
2022/03/04 11:45:02;;;;;;;5.15;1.90;;;6.00;61.00;;;;;;5090019;28;20055;-60
2022/03/04 11:47:36;;;;;;;2.85;1.85;;;6.30;59.20;;;;;;5087410;28;20028;-60
2022/03/04 11:50:23;;;;;;;3.95;1.20;;;6.50;54.50;;;;;;5089801;28;20077;-60
2022/03/04 11:52:48;;;;;;;;;;;6.70;51.00;;;;;;5055234;28;20036;-61
2022/03/04 11:55:20;;;;;;;5.37;1.17;;;6.90;45.20;;;;;;5089757;28;19953;-60
2022/03/04 11:57:46;;;;;;;3.30;1.38;;;7.00;48.40;;;;;;5054260;28;20475;-61
2022/03/04 12:00:12;;;;;;;3.08;1.40;;;7.00;49.50;;;;;;5089453;28;20444;-60
2022/03/04 12:02:43;;;;;;;3.42;1.30;;;6.70;43.00;;;;;;5087410;28;20062;-60
2022/03/04 12:05:17;;;;;;;4.57;1.27;;;6.30;43.20;;;;;;5089653;28;20035;-60
2022/03/04 12:07:45;;;;;;;3.70;1.30;;;6.40;47.20;;;;;;5087204;28;20113;-60
2022/03/04 12:10:20;;;;;;;2.50;1.40;;;6.50;42.20;;;;;;5089411;28;20494;-60
2022/03/04 12:13:05;;;;;;;4.70;1.40;;;6.70;47.00;;;;;;5054060;28;20039;-60
2022/03/04 12:15:32;;;;;;;2.17;1.10;;;6.90;46.60;;;;;;5089234;28;20031;-60
2022/03/04 12:18:02;;;;;;;1.90;1.05;;;7.00;44.20;;;;;;5087090;28;20031;-60
2022/03/04 12:20:53;;;;;;;3.53;1.17;;;7.00;45.70;;;;;;5089346;28;20027;-60
2022/03/04 12:23:27;;;;;;;7.55;2.08;;;7.10;44.10;;;;;;5062630;28;20050;-61
2022/03/04 12:25:56;;;;;;;5.03;1.30;;;7.20;47.00;;;;;;5048917;28;20484;-60
2022/03/04 12:28:35;;;;;;;2.45;1.27;;;7.30;47.30;;;;;;5079601;28;20082;-58
2022/03/04 12:31:01;;;;;;;2.88;1.00;;;7.20;41.20;;;;;;5049407;28;20036;-58
2022/03/04 12:33:30;;;;;;;3.95;0.98;;;7.10;48.80;;;;;;5085668;28;20024;-58
2022/03/04 12:35:57;;;;;;;5.07;1.27;;;7.00;48.00;;;;;;5088829;28;20028;-58
2022/03/04 12:38:28;;;;;;;2.92;0.80;;;6.90;45.10;;;;;;5086791;28;20012;-58
2022/03/04 12:40:57;;;;;;;2.90;1.10;;;6.70;49.20;;;;;;5088572;28;20027;-60
2022/03/04 12:43:22;;;;;;;1.88;0.85;;;6.60;50.00;;;;;;5086914;28;20025;-61
2022/03/04 12:45:48;;;;;;;2.60;1.27;;;6.50;41.50;;;;;;5088605;28;20073;-61
2022/03/04 12:48:14;;;;;;;2.30;1.35;;;6.20;45.40;;;;;;5087012;28;20051;-60
2022/03/04 12:50:39;;;;;;;3.17;1.27;;;6.00;45.20;;;;;;5088825;28;20122;-61
2022/03/04 12:53:22;;;;;;;3.15;1.27;;;5.90;42.10;;;;;;5086600;28;20027;-61
2022/03/04 12:55:49;;;;;;;3.53;1.13;;;5.70;41.60;;;;;;5089182;28;20118;-61
2022/03/04 12:58:14;;;;;;;0.73;0.70;;;5.80;47.10;;;;;;5086504;28;20020;-60
2022/03/04 13:00:40;;;;;;;4.05;0.90;;;5.90;43.00;;;;;;5088692;28;20020;-61
2022/03/04 13:03:20;;;;;;;2.60;1.30;;;6.00;44.20;;;;;;5086657;28;20024;-61
2022/03/04 13:05:46;;;;;;;4.63;1.30;;;6.10;39.30;;;;;;5088628;28;20024;-60
2022/03/04 13:08:15;;;;;;;2.05;0.98;;;6.30;41.90;;;;;;5086471;28;20403;-61
2022/03/04 13:10:40;;;;;;;3.55;1.17;;;6.40;44.70;;;;;;5088589;28;20024;-60
2022/03/04 13:13:06;;;;;;;3.20;0.90;;;6.60;43.90;;;;;;5086947;28;20023;-61
2022/03/04 13:15:32;;;;;;;2.45;1.17;;;6.60;42.60;;;;;;5088699;28;20023;-60
2022/03/04 13:17:59;;;;;;;1.77;0.90;;;6.50;39.60;;;;;;5086471;28;20031;-60
2022/03/04 13:20:25;;;;;;;5.50;1.40;;;6.00;40.00;;;;;;5088540;28;20028;-60
2022/03/04 13:23:08;;;;;;;3.63;1.00;;;5.90;40.90;;;;;;5086276;28;20099;-60
2022/03/04 13:25:33;;;;;;;3.88;1.00;;;5.90;41.20;;;;;;5088547;28;20557;-61
2022/03/04 13:28:00;;;;;;;3.60;1.30;;;6.00;45.20;;;;;;5079042;28;20028;-60
2022/03/04 13:30:25;;;;;;;2.95;1.20;;;6.00;44.70;;;;;;5088527;28;20027;-61
2022/03/04 13:32:55;;;;;;;2.92;1.17;;;5.90;42.50;;;;;;5086093;28;20406;-60
2022/03/04 13:35:24;;;;;;;3.13;1.17;;;6.00;45.60;;;;;;5088543;28;20027;-60
2022/03/04 13:37:51;;;;;;;1.92;1.10;;;6.10;45.00;;;;;;5086299;28;20047;-61
2022/03/04 13:40:19;;;;;;;2.00;1.13;;;6.20;42.90;;;;;;5088531;28;20028;-61
2022/03/04 13:42:52;;;;;;;4.55;1.20;;;6.20;43.30;;;;;;5086352;28;20411;-61
2022/03/04 13:45:48;;;;;;;1.67;1.00;;;6.10;47.00;;;;;;5088266;28;20024;-60
2022/03/04 13:48:14;;;;;;;1.45;1.00;;;6.20;47.00;;;;;;5065653;28;20081;-61
2022/03/04 13:50:42;;;;;;;4.45;1.92;;;6.20;43.50;;;;;;5088239;28;20032;-61
2022/03/04 13:53:09;;;;;;;2.95;1.45;;;5.90;43.20;;;;;;5087673;28;20039;-60
2022/03/04 13:55:50;;;;;;;4.45;1.80;;;5.80;47.40;;;;;;5091917;28;20544;-61
2022/03/04 13:58:19;;;;;;;5.85;1.33;;;5.50;45.10;;;;;;5069896;28;20040;-60
2022/03/04 14:00:46;;;;;;;4.50;1.50;;;5.60;48.00;;;;;;5091833;28;20088;-61
2022/03/04 14:03:14;;;;;;;2.88;1.45;;;5.50;47.50;;;;;;5089806;28;20023;-60
2022/03/04 14:05:42;;;;;;;2.55;1.25;;;5.60;48.00;;;;;;5091726;28;20710;-60
2022/03/04 14:08:13;;;;;;;2.95;1.30;;;5.80;48.00;;;;;;5089689;28;20046;-60
2022/03/04 14:10:41;;;;;;;6.70;2.08;;;5.80;47.10;;;;;;5091629;28;20446;-60
2022/03/04 14:13:09;;;;;;;4.00;1.60;;;5.60;42.80;;;;;;5089514;28;20383;-60
2022/03/04 14:15:38;;;;;;;3.67;1.40;;;5.60;43.10;;;;;;5091478;28;20028;-60
2022/03/04 14:18:06;;;;;;;5.38;2.03;;;5.60;44.20;;;;;;5071437;28;20476;-60
2022/03/04 14:20:33;;;;;;;3.17;1.33;;;5.50;43.70;;;;;;5091407;28;20028;-60
2022/03/04 14:22:58;;;;;;;4.88;1.67;;;5.60;45.80;;;;;;5089280;28;20016;-61
2022/03/04 14:25:24;;;;;;;3.17;1.52;;;5.50;45.70;;;;;;5091348;28;20054;-61
2022/03/04 14:27:52;;;;;;;2.22;1.10;;;5.40;46.40;;;;;;5085447;28;20040;-60
2022/03/04 14:30:27;;;;;;;3.92;1.80;;;5.50;47.20;;;;;;5091542;28;20565;-60
2022/03/04 14:32:54;;;;;;;4.68;1.77;;;5.50;45.40;;;;;;5062475;28;20039;-60
2022/03/04 14:35:22;;;;;;;2.60;1.52;;;5.40;46.80;;;;;;5091435;28;20030;-60
2022/03/04 14:37:48;;;;;;;3.30;1.30;;;5.40;43.80;;;;;;5089083;28;20073;-60
2022/03/04 14:40:16;;;;;;;2.47;1.20;;;5.30;44.40;;;;;;5091297;28;20384;-64
2022/03/04 14:42:43;;;;;;;5.32;1.30;;;5.40;44.10;;;;;;5088959;28;20111;-60
2022/03/04 14:45:09;;;;;;;3.90;1.70;;;5.20;43.90;;;;;;5091215;28;20490;-60
2022/03/04 14:47:35;;;;;;;4.03;1.40;;;5.10;46.60;;;;;;5088829;28;20891;-61
2022/03/04 14:50:03;;;;;;;4.15;1.40;;;5.10;48.00;;;;;;5091181;28;20032;-60
2022/03/04 14:53:08;;;;;;;6.68;1.55;;;5.00;45.60;;;;;;5069830;28;20028;-60
2022/03/04 14:56:33;;;;;;;4.50;1.98;;;5.00;47.40;;;;;;5083378;28;20429;-60
2022/03/04 14:59:59;;;;;;;6.13;1.35;;;4.80;48.70;;;;;;5076255;28;20040;-60
2022/03/04 15:03:24;;;;;;;3.22;1.30;;;4.80;50.10;;;;;;5076239;28;20732;-61
2022/03/04 15:06:50;;;;;;;3.40;1.60;;;4.70;50.10;;;;;;5073754;28;20094;-60
2022/03/04 15:10:15;;;;;;;2.72;1.52;;;4.60;52.00;;;;;;5085150;28;20058;-60
2022/03/04 15:13:40;;;;;;;6.80;1.98;;;4.50;54.50;;;;;;5085317;28;20036;-61
2022/03/04 15:17:06;;;;;;;5.05;1.55;;;4.50;54.80;;;;;;5062722;28;20036;-61
2022/03/04 15:20:31;;;;;;;4.10;1.40;;;4.50;55.60;;;;;;5075804;28;20487;-61
2022/03/04 15:23:56;;;;;;;3.35;1.60;;;4.50;57.10;;;;;;5075326;28;20032;-61
2022/03/04 15:27:22;;;;;;;2.67;1.42;;;4.50;55.70;;;;;;5063214;28;20063;-61
2022/03/04 15:30:47;;;;;;;2.00;1.27;;;4.50;57.20;;;;;;5049191;28;20045;-60
2022/03/04 15:34:12;;;;;;;4.78;1.15;;;4.60;57.20;;;;;;5086587;28;20064;-60
2022/03/04 15:37:38;;;;;;;3.03;1.17;;;4.50;55.20;;;;;;5068208;28;20388;-61
2022/03/04 15:41:03;;;;;;;3.55;0.98;;;4.50;53.40;;;;;;5075276;28;20036;-60
2022/03/04 15:44:29;;;;;;;4.65;1.50;;;4.50;55.30;;;;;;5084700;28;20081;-61
2022/03/04 15:47:54;;;;;;;3.33;1.60;;;4.50;55.80;;;;;;5065812;28;20036;-61
2022/03/04 15:51:19;;;;;;;3.03;1.30;;;4.50;52.30;;;;;;5084013;28;20097;-61
2022/03/04 15:54:45;;;;;;;2.33;1.20;;;4.40;52.90;;;;;;5086261;28;20372;-60
2022/03/04 15:58:10;;;;;;;2.88;1.40;;;4.40;51.80;;;;;;5086052;28;20031;-60
2022/03/04 16:01:37;;;;;;;4.97;1.35;;;4.30;54.40;;;;;;5049522;28;20459;-60
2022/03/04 16:05:01;;;;;;;2.60;1.23;;;4.30;55.90;;;;;;5049166;28;20037;-60
2022/03/04 16:08:26;;;;;;;2.83;1.30;;;4.20;54.90;;;;;;5064092;28;20036;-60
2022/03/04 16:11:54;;;;;;;3.30;1.17;;;4.20;56.80;;;;;;5078176;28;20047;-60
2022/03/04 16:15:20;;;;;;;1.52;0.90;;;4.20;58.80;;;;;;5083928;28;20115;-60
2022/03/04 16:18:48;;;;;;;3.33;1.33;;;4.10;59.30;;;;;;5076403;28;20067;-61
2022/03/04 16:22:13;;;;;;;2.10;1.23;;;4.10;61.30;;;;;;5076032;28;20036;-61
2022/03/04 16:25:39;;;;;;;4.85;1.70;;;4.10;62.20;;;;;;5089095;28;20048;-60